createdAt,value
2018-08-20T00:01:01.622Z,9.57
2018-08-20T00:05:04.597Z,8.30
2018-08-20T00:09:06.791Z,9.30
2018-08-20T00:13:08.998Z,8.77
2018-08-20T00:17:11.214Z,9.10
2018-08-20T00:21:13.380Z,9.03
2018-08-20T00:25:16.919Z,9.17
2018-08-20T00:29:19.091Z,9.80
2018-08-20T00:33:21.266Z,9.10
2018-08-20T00:37:23.435Z,9.13
2018-08-20T00:41:25.585Z,9.43
2018-08-20T00:45:28.382Z,8.67
2018-08-20T00:49:30.534Z,8.27
2018-08-20T00:53:33.113Z,8.13
2018-08-20T00:57:35.678Z,8.80
2018-08-20T01:01:37.858Z,8.83
2018-08-20T01:05:40.087Z,9.40
2018-08-20T01:09:42.258Z,9.03
2018-08-20T01:13:44.426Z,8.63
2018-08-20T01:17:46.608Z,8.93
2018-08-20T01:21:48.808Z,9.20
2018-08-20T01:26:00.639Z,8.97
2018-08-20T01:30:03.491Z,9.73
2018-08-20T01:34:06.036Z,8.93
2018-08-20T01:38:08.326Z,8.93
2018-08-20T01:42:11.355Z,9.23
2018-08-20T01:46:13.542Z,9.30
2018-08-20T01:50:15.871Z,8.90
2018-08-20T01:54:18.450Z,9.30
2018-08-20T01:58:20.670Z,9.27
2018-08-20T02:02:22.988Z,8.07
2018-08-20T02:06:25.130Z,8.07
2018-08-20T02:10:28.155Z,9.93
2018-08-20T02:14:31.147Z,10.23
2018-08-20T02:18:33.339Z,9.80
2018-08-20T02:22:35.485Z,9.83
2018-08-20T02:26:37.679Z,11.10
2018-08-20T02:30:39.841Z,11.87
2018-08-20T02:34:41.972Z,11.90
2018-08-20T02:38:44.377Z,11.70
2018-08-20T02:42:47.615Z,10.37
2018-08-20T02:46:52.000Z,10.80
2018-08-20T02:50:54.146Z,11.90
2018-08-20T02:54:56.291Z,11.73
2018-08-20T02:58:58.840Z,10.47
2018-08-20T03:03:01.975Z,11.57
2018-08-20T03:07:04.575Z,12.33
2018-08-20T03:11:06.831Z,11.67
2018-08-20T03:15:09.845Z,11.07
2018-08-20T03:19:11.998Z,11.93
2018-08-20T03:23:14.204Z,11.90
2018-08-20T03:27:16.455Z,12.83
2018-08-20T03:31:18.628Z,12.33
2018-08-20T03:35:20.828Z,11.53
2018-08-20T03:39:23.019Z,11.83
2018-08-20T03:43:25.201Z,10.43
2018-08-20T03:47:27.399Z,11.20
2018-08-20T03:51:29.593Z,12.30
2018-08-20T03:55:31.779Z,11.07
2018-08-20T03:59:35.486Z,13.20
2018-08-20T04:03:38.058Z,10.87
2018-08-20T04:07:40.809Z,13.43
2018-08-20T04:11:42.980Z,12.40
2018-08-20T04:15:45.147Z,13.13
2018-08-20T04:19:47.304Z,13.30
2018-08-20T04:23:49.918Z,11.87
2018-08-20T04:27:52.690Z,12.03
2018-08-20T04:31:54.839Z,14.10
2018-08-20T04:35:56.995Z,13.93
2018-08-20T04:39:59.194Z,14.07
2018-08-20T04:44:01.619Z,12.07
2018-08-20T04:48:04.015Z,11.67
2018-08-20T04:52:06.665Z,13.63
2018-08-20T04:56:09.129Z,12.10
2018-08-20T05:00:11.663Z,12.37
2018-08-20T05:04:13.807Z,12.93
2018-08-20T05:08:16.008Z,14.17
2018-08-20T05:12:18.163Z,12.70
2018-08-20T05:16:20.336Z,12.93
2018-08-20T05:20:22.458Z,13.03
2018-08-20T05:24:24.609Z,12.83
2018-08-20T05:28:26.750Z,10.30
2018-08-20T05:32:28.983Z,12.07
2018-08-20T05:36:31.130Z,10.33
2018-08-20T05:40:33.271Z,11.20
2018-08-20T05:44:35.451Z,11.40
2018-08-20T05:48:37.582Z,9.90
2018-08-20T05:52:39.848Z,12.37
2018-08-20T05:56:41.931Z,10.23
2018-08-20T06:00:44.416Z,10.87
2018-08-20T06:04:46.624Z,10.43
2018-08-20T06:08:48.786Z,12.43
2018-08-20T06:12:51.013Z,11.57
2018-08-20T06:16:53.235Z,10.30
2018-08-20T06:20:55.670Z,11.20
2018-08-20T06:24:57.858Z,11.27
2018-08-20T06:29:00.041Z,12.10
2018-08-20T06:33:02.257Z,9.73
2018-08-20T06:37:04.489Z,10.23
2018-08-20T06:41:06.698Z,9.57
2018-08-20T06:45:13.047Z,10.00
2018-08-20T06:49:15.253Z,10.43
2018-08-20T06:53:17.407Z,9.57
2018-08-20T06:57:19.799Z,9.83
2018-08-20T07:01:22.015Z,10.30
2018-08-20T07:05:24.171Z,10.20
2018-08-20T07:09:26.407Z,10.00
2018-08-20T07:13:33.012Z,10.37
2018-08-20T07:17:35.297Z,12.10
2018-08-20T07:21:37.408Z,12.30
2018-08-20T07:25:39.571Z,11.67
2018-08-20T07:29:43.354Z,13.73
2018-08-20T07:33:45.533Z,15.90
2018-08-20T07:37:47.700Z,15.67
2018-08-20T07:41:49.880Z,14.60
2018-08-20T07:45:52.206Z,15.30
2018-08-20T07:49:54.330Z,13.13
2018-08-20T07:53:56.476Z,14.10
2018-08-20T07:57:59.534Z,14.07
2018-08-20T08:02:01.767Z,12.53
2018-08-20T08:06:04.663Z,12.63
2018-08-20T08:10:09.214Z,12.23
2018-08-20T08:14:11.474Z,12.07
2018-08-20T08:18:13.545Z,14.30
2018-08-20T08:22:15.807Z,13.10
2018-08-20T08:26:18.039Z,12.57
2018-08-20T08:30:20.240Z,14.23
2018-08-20T08:34:22.875Z,12.63
2018-08-20T08:38:25.220Z,10.90
2018-08-20T08:42:27.423Z,12.30
2018-08-20T08:46:29.640Z,12.03
2018-08-20T08:50:31.827Z,12.63
2018-08-20T08:54:34.088Z,10.80
2018-08-20T08:58:36.348Z,10.70
2018-08-20T09:02:39.588Z,12.50
2018-08-20T09:06:41.754Z,10.77
2018-08-20T09:10:44.011Z,10.47
2018-08-20T09:14:46.201Z,13.53
2018-08-20T09:18:48.343Z,11.13
2018-08-20T09:22:50.563Z,10.63
2018-08-20T09:26:52.840Z,11.80
2018-08-20T09:30:55.195Z,10.20
2018-08-20T09:34:57.407Z,10.73
2018-08-20T09:38:59.584Z,8.93
2018-08-20T09:43:01.776Z,9.97
2018-08-20T09:47:03.971Z,9.03
2018-08-20T09:51:06.178Z,7.70
2018-08-20T09:55:09.020Z,9.90
2018-08-20T09:59:11.288Z,10.40
2018-08-20T10:03:13.407Z,7.17
2018-08-20T10:07:15.601Z,6.93
2018-08-20T10:11:17.736Z,6.43
2018-08-20T10:15:19.919Z,5.50
2018-08-20T10:19:22.087Z,5.80
2018-08-20T10:23:24.239Z,5.23
2018-08-20T10:27:26.382Z,5.80
2018-08-20T10:31:28.564Z,5.43
2018-08-20T10:35:30.728Z,5.70
2018-08-20T10:39:33.685Z,4.83
2018-08-20T10:43:35.941Z,6.37
2018-08-20T10:47:38.075Z,5.27
2018-08-20T10:51:40.239Z,5.10
2018-08-20T10:55:43.814Z,5.03
2018-08-20T10:59:46.004Z,5.90
2018-08-20T11:03:54.132Z,5.77
2018-08-20T11:07:56.447Z,5.23
2018-08-20T11:11:58.867Z,5.03
2018-08-20T11:16:01.751Z,6.13
2018-08-20T11:20:06.592Z,6.30
2018-08-20T11:24:08.819Z,6.70
2018-08-20T11:28:11.098Z,6.97
2018-08-20T11:32:13.883Z,6.90
2018-08-20T11:36:16.075Z,6.93
2018-08-20T11:40:18.223Z,6.93
2018-08-20T11:44:21.033Z,6.33
2018-08-20T11:48:23.200Z,6.57
2018-08-20T11:52:25.375Z,7.20
2018-08-20T11:56:27.514Z,7.47
2018-08-20T12:00:29.668Z,6.47
2018-08-20T12:04:31.845Z,7.00
2018-08-20T12:08:34.078Z,6.70
2018-08-20T12:12:36.531Z,6.30
2018-08-20T12:16:38.681Z,7.07
2018-08-20T12:20:40.919Z,6.27
2018-08-20T12:24:43.147Z,6.27
2018-08-20T12:28:45.458Z,6.17
2018-08-20T12:32:47.609Z,6.20
2018-08-20T12:36:49.767Z,6.30
2018-08-20T12:40:52.428Z,4.70
2018-08-20T12:44:54.691Z,5.10
2018-08-20T12:48:57.095Z,3.60
2018-08-20T12:52:59.510Z,3.97
2018-08-20T12:57:02.072Z,3.77
2018-08-20T13:01:04.405Z,3.77
2018-08-20T13:05:06.643Z,3.93
2018-08-20T13:09:08.840Z,4.60
2018-08-20T13:13:11.268Z,4.43
2018-08-20T13:17:13.713Z,4.17
2018-08-20T13:21:15.935Z,4.00
2018-08-20T13:25:18.188Z,4.27
2018-08-20T13:29:20.704Z,4.33
2018-08-20T13:33:22.843Z,3.70
2018-08-20T13:37:25.127Z,4.67
2018-08-20T13:41:27.246Z,3.87
2018-08-20T13:45:29.483Z,4.70
2018-08-20T13:49:32.376Z,4.67
2018-08-20T13:53:34.561Z,3.87
2018-08-20T13:57:41.666Z,3.63
2018-08-20T14:01:43.842Z,5.03
2018-08-20T14:05:46.029Z,4.97
2018-08-20T14:09:48.352Z,4.20
2018-08-20T14:13:50.528Z,4.40
2018-08-20T14:17:52.713Z,3.93
2018-08-20T14:21:55.054Z,4.60
2018-08-20T14:25:57.848Z,4.70
2018-08-20T14:30:00.372Z,4.67
2018-08-20T14:34:02.745Z,5.47
2018-08-20T14:38:05.039Z,4.47
2018-08-20T14:42:07.510Z,3.80
2018-08-20T14:46:15.247Z,4.10
2018-08-20T14:50:17.875Z,4.40
2018-08-20T14:54:20.176Z,3.90
2018-08-20T14:58:22.868Z,3.87
2018-08-20T15:02:25.180Z,4.33
2018-08-20T15:06:27.520Z,4.10
2018-08-20T15:10:29.717Z,3.50
2018-08-20T15:14:31.944Z,3.63
2018-08-20T15:18:34.139Z,4.27
2018-08-20T15:22:36.667Z,4.10
2018-08-20T15:26:39.535Z,4.10
2018-08-20T15:30:41.731Z,4.40
2018-08-20T15:34:43.871Z,4.63
2018-08-20T15:38:46.060Z,4.77
2018-08-20T15:42:48.889Z,5.40
2018-08-20T15:46:51.091Z,4.47
2018-08-20T15:50:53.697Z,5.70
2018-08-20T15:54:55.890Z,5.37
2018-08-20T15:58:58.053Z,6.00
2018-08-20T16:03:00.357Z,5.43
2018-08-20T16:07:02.642Z,5.73
2018-08-20T16:11:04.892Z,6.17
2018-08-20T16:15:07.858Z,5.17
2018-08-20T16:19:10.051Z,4.53
2018-08-20T16:23:12.228Z,5.07
2018-08-20T16:27:14.432Z,3.67
2018-08-20T16:31:16.687Z,3.53
2018-08-20T16:35:18.955Z,3.23
2018-08-20T16:39:21.607Z,3.13
2018-08-20T16:43:23.802Z,3.20
2018-08-20T16:47:26.117Z,2.73
2018-08-20T16:51:29.432Z,2.83
2018-08-20T16:55:31.636Z,3.70
2018-08-20T16:59:34.196Z,2.70
2018-08-20T17:03:36.563Z,2.50
2018-08-20T17:07:38.988Z,2.67
2018-08-20T17:11:42.193Z,2.97
2018-08-20T17:15:44.347Z,3.27
2018-08-20T17:19:47.226Z,3.67
2018-08-20T17:23:49.419Z,4.87
2018-08-20T17:28:02.306Z,5.77
2018-08-20T17:32:05.900Z,5.57
2018-08-20T17:36:08.155Z,5.60
2018-08-20T17:40:10.422Z,6.70
2018-08-20T17:44:12.610Z,7.60
2018-08-20T17:48:24.547Z,8.27
2018-08-20T17:52:28.215Z,7.30
2018-08-20T17:56:30.402Z,7.77
2018-08-20T18:00:38.384Z,7.67
2018-08-20T18:04:40.646Z,7.20
2018-08-20T18:08:42.799Z,7.30
2018-08-20T18:12:45.022Z,8.90
2018-08-20T18:16:47.883Z,7.60
2018-08-20T18:20:50.109Z,7.90
2018-08-20T18:24:52.326Z,7.10
2018-08-20T18:28:54.799Z,8.20
2018-08-20T18:32:57.068Z,7.10
2018-08-20T18:37:02.958Z,7.33
2018-08-20T18:41:05.312Z,7.93
2018-08-20T18:45:07.547Z,7.57
2018-08-20T18:49:10.221Z,7.80
2018-08-20T18:53:13.777Z,7.35
2018-08-20T18:57:18.315Z,7.83
2018-08-20T19:01:20.539Z,7.50
2018-08-20T19:05:22.840Z,8.77
2018-08-20T19:09:25.063Z,9.20
2018-08-20T19:13:27.357Z,8.50
2018-08-20T19:17:29.572Z,9.80
2018-08-20T19:21:35.267Z,8.80
2018-08-20T19:25:37.553Z,10.38
2018-08-20T19:29:39.754Z,8.50
2018-08-20T19:33:42.581Z,8.33
2018-08-20T19:37:45.089Z,8.83
2018-08-20T19:41:47.352Z,8.60
2018-08-20T19:45:49.581Z,9.90
2018-08-20T19:49:51.813Z,8.40
2018-08-20T19:53:54.063Z,8.60
2018-08-20T19:57:56.307Z,9.70
2018-08-20T20:01:58.505Z,9.57
2018-08-20T20:06:01.246Z,8.87
2018-08-20T20:10:07.767Z,9.03
2018-08-20T20:14:09.959Z,8.13
2018-08-20T20:18:12.234Z,7.40
2018-08-20T20:22:16.001Z,7.73
2018-08-20T20:26:18.297Z,8.77
2018-08-20T20:30:20.687Z,6.83
2018-08-20T20:35:52.405Z,6.93
2018-08-20T20:40:00.804Z,5.73
2018-08-20T20:44:03.308Z,6.57
2018-08-20T20:48:05.518Z,6.43
2018-08-20T20:52:07.748Z,6.43
2018-08-20T20:56:10.010Z,6.73
2018-08-20T21:00:12.280Z,6.53
2018-08-20T21:04:14.508Z,6.83
2018-08-20T21:08:16.796Z,6.50
2018-08-20T21:12:19.055Z,7.17
2018-08-20T21:16:22.091Z,7.17
2018-08-20T21:20:24.299Z,7.13
2018-08-20T21:24:26.507Z,6.50
2018-08-20T21:28:33.516Z,7.27
2018-08-20T21:32:35.723Z,8.17
2018-08-20T21:36:37.929Z,6.70
2018-08-20T21:40:46.851Z,8.77
2018-08-20T21:44:49.071Z,9.20
2018-08-20T21:48:51.251Z,9.10
2018-08-20T21:52:53.466Z,10.07
2018-08-20T21:56:55.656Z,10.03
2018-08-20T22:00:57.910Z,10.33
2018-08-20T22:05:03.073Z,9.23
2018-08-20T22:09:05.469Z,9.93
2018-08-20T22:13:07.707Z,9.23
2018-08-20T22:17:13.844Z,9.10
2018-08-20T22:21:17.084Z,9.20
2018-08-20T22:25:19.290Z,10.27
2018-08-20T22:29:21.525Z,8.27
2018-08-20T22:33:23.703Z,9.80
2018-08-20T22:37:25.928Z,9.57
2018-08-20T22:41:29.289Z,9.67
2018-08-20T22:45:31.468Z,9.67
2018-08-20T22:49:33.630Z,9.83
2018-08-20T22:53:36.724Z,8.43
2018-08-20T22:57:40.267Z,9.13
2018-08-20T23:01:42.460Z,8.67
2018-08-20T23:05:44.626Z,9.03
2018-08-20T23:09:46.948Z,9.17
2018-08-20T23:13:49.130Z,10.17
2018-08-20T23:17:51.328Z,10.10
2018-08-20T23:21:53.785Z,9.03
2018-08-20T23:26:05.845Z,11.23
2018-08-20T23:30:09.544Z,9.77
2018-08-20T23:34:12.835Z,9.53
2018-08-20T23:38:14.999Z,9.00
2018-08-20T23:42:19.011Z,9.30
2018-08-20T23:46:29.983Z,8.80
2018-08-20T23:50:32.297Z,8.43
2018-08-20T23:54:34.530Z,7.87
2018-08-20T23:58:36.728Z,8.60
